createdAt,value
2023-05-04T00:01:21.889Z,73.82
2023-05-04T00:03:56.349Z,73.54
2023-05-04T00:06:29.058Z,73.86
2023-05-04T00:09:01.748Z,73.96
2023-05-04T00:11:34.453Z,74.07
2023-05-04T00:14:07.426Z,73.65
2023-05-04T00:16:40.385Z,73.56
2023-05-04T00:19:14.568Z,74.01
2023-05-04T00:21:47.294Z,74.23
2023-05-04T00:24:20.048Z,73.70
2023-05-04T00:26:52.772Z,73.54
2023-05-04T00:29:25.664Z,73.45
2023-05-04T00:31:58.996Z,73.89
2023-05-04T00:34:34.902Z,74.02
2023-05-04T00:37:08.078Z,73.53
2023-05-04T00:39:40.827Z,73.78
2023-05-04T00:42:13.776Z,73.93
2023-05-04T00:44:46.722Z,73.75
2023-05-04T00:47:21.459Z,74.13
2023-05-04T00:49:55.605Z,74.04
2023-05-04T00:52:28.887Z,74.00
2023-05-04T00:55:01.916Z,73.90
2023-05-04T00:57:34.698Z,74.05
2023-05-04T01:00:08.636Z,74.42
2023-05-04T01:02:42.321Z,74.32
2023-05-04T01:05:16.606Z,74.40
2023-05-04T01:07:53.218Z,74.60
2023-05-04T01:10:28.519Z,74.51
2023-05-04T01:13:03.246Z,74.52
2023-05-04T01:15:36.767Z,74.66
2023-05-04T01:18:09.753Z,74.69
2023-05-04T01:20:44.377Z,74.09
2023-05-04T01:23:18.554Z,74.48
2023-05-04T01:25:58.714Z,74.59
2023-05-04T01:28:36.222Z,74.62
2023-05-04T01:31:11.734Z,74.41
2023-05-04T01:33:45.491Z,74.68
2023-05-04T01:36:19.045Z,74.53
2023-05-04T01:38:56.210Z,74.20
2023-05-04T01:41:30.166Z,74.63
2023-05-04T01:44:03.319Z,74.53
2023-05-04T01:46:36.190Z,74.40
2023-05-04T01:49:09.116Z,74.33
2023-05-04T01:51:41.849Z,74.13
2023-05-04T01:54:16.473Z,74.13
2023-05-04T01:56:49.193Z,74.44
2023-05-04T01:59:21.807Z,74.09
2023-05-04T02:01:55.285Z,74.34
2023-05-04T02:04:28.453Z,74.34
2023-05-04T02:07:01.523Z,73.96
2023-05-04T02:09:36.690Z,74.15
2023-05-04T02:12:09.559Z,74.15
2023-05-04T02:14:42.415Z,74.02
2023-05-04T02:17:15.285Z,74.19
2023-05-04T02:19:47.952Z,74.12
2023-05-04T02:22:20.676Z,74.01
2023-05-04T02:24:54.786Z,74.36
2023-05-04T02:27:27.604Z,74.18
2023-05-04T02:30:00.566Z,74.30
2023-05-04T02:32:33.340Z,74.28
2023-05-04T02:35:06.320Z,74.41
2023-05-04T02:37:38.979Z,74.25
2023-05-04T02:40:14.405Z,74.31
2023-05-04T02:42:47.143Z,74.61
2023-05-04T02:45:19.942Z,74.16
2023-05-04T02:47:52.789Z,74.41
2023-05-04T02:50:25.529Z,74.37
2023-05-04T02:52:58.247Z,74.53
2023-05-04T02:55:32.656Z,74.26
2023-05-04T02:58:06.085Z,74.43
2023-05-04T03:00:38.818Z,74.34
2023-05-04T03:03:12.885Z,74.12
2023-05-04T03:05:45.514Z,74.28
2023-05-04T03:08:18.512Z,74.39
2023-05-04T03:10:52.682Z,74.26
2023-05-04T03:13:25.439Z,74.35
2023-05-04T03:15:58.289Z,74.14
2023-05-04T03:18:31.010Z,74.50
2023-05-04T03:21:03.785Z,74.20
2023-05-04T03:23:36.574Z,74.14
2023-05-04T03:26:10.696Z,74.24
2023-05-04T03:28:43.510Z,74.18
2023-05-04T03:31:16.319Z,74.14
2023-05-04T03:33:49.762Z,74.11
2023-05-04T03:36:22.462Z,73.98
2023-05-04T03:38:55.152Z,74.08
2023-05-04T03:41:29.253Z,74.47
2023-05-04T03:44:02.038Z,74.19
2023-05-04T03:46:34.878Z,74.23
2023-05-04T03:49:07.888Z,74.13
2023-05-04T03:51:40.603Z,74.38
2023-05-04T03:54:13.486Z,74.36
2023-05-04T03:56:47.597Z,74.29
2023-05-04T03:59:20.330Z,74.34
2023-05-04T04:01:53.117Z,74.47
2023-05-04T04:04:25.913Z,74.39
2023-05-04T04:06:58.820Z,74.56
2023-05-04T04:09:31.791Z,74.32
2023-05-04T04:12:06.725Z,74.34
2023-05-04T04:14:39.446Z,74.43
2023-05-04T04:17:12.172Z,74.57
2023-05-04T04:19:44.917Z,74.34
2023-05-04T04:22:17.782Z,74.38
2023-05-04T04:24:50.548Z,74.41
2023-05-04T04:27:25.235Z,74.80
2023-05-04T04:29:58.151Z,74.50
2023-05-04T04:32:30.999Z,75.26
2023-05-04T04:35:04.348Z,75.14
2023-05-04T04:37:37.216Z,74.77
2023-05-04T04:40:11.221Z,74.89
2023-05-04T04:42:45.440Z,75.12
2023-05-04T04:45:18.246Z,75.43
2023-05-04T04:47:51.093Z,75.20
2023-05-04T04:50:23.876Z,75.38
2023-05-04T04:52:56.528Z,75.69
2023-05-04T04:55:30.221Z,75.60
2023-05-04T04:58:04.277Z,75.63
2023-05-04T05:00:37.069Z,75.64
2023-05-04T05:03:10.431Z,75.82
2023-05-04T05:05:43.243Z,76.03
2023-05-04T05:08:16.163Z,76.04
2023-05-04T05:10:55.357Z,76.03
2023-05-04T05:17:27.981Z,76.62
2023-05-04T05:23:15.353Z,81.00
2023-05-04T05:25:50.204Z,81.60
2023-05-04T05:28:23.163Z,82.86
2023-05-04T05:30:57.285Z,82.92
2023-05-04T05:33:30.043Z,82.96
2023-05-04T05:36:03.074Z,83.23
2023-05-04T05:38:35.827Z,83.19
2023-05-04T05:41:09.834Z,82.97
2023-05-04T05:43:42.768Z,82.90
2023-05-04T05:46:17.003Z,82.47
2023-05-04T05:48:50.193Z,82.23
2023-05-04T05:51:23.202Z,82.16
2023-05-04T05:53:55.864Z,81.45
2023-05-04T05:56:32.023Z,81.21
2023-05-04T05:59:04.724Z,81.18
2023-05-04T06:01:38.795Z,80.85
2023-05-04T06:04:11.578Z,80.57
2023-05-04T06:06:45.930Z,80.43
2023-05-04T06:09:19.304Z,79.96
2023-05-04T06:11:54.786Z,80.19
2023-05-04T06:14:28.632Z,79.88
2023-05-04T06:17:02.869Z,79.33
2023-05-04T06:19:35.753Z,78.56
2023-05-04T06:22:08.434Z,78.23
2023-05-04T06:24:41.656Z,77.76
2023-05-04T06:27:14.425Z,77.63
2023-05-04T06:29:47.704Z,76.97
2023-05-04T06:32:21.881Z,76.14
2023-05-04T06:34:55.588Z,74.95
2023-05-04T06:37:30.732Z,74.47
2023-05-04T06:40:04.104Z,72.90
2023-05-04T06:42:36.837Z,73.18
2023-05-04T06:45:09.904Z,73.42
2023-05-04T06:47:44.060Z,74.08
2023-05-04T06:50:16.796Z,73.85
2023-05-04T06:52:49.423Z,72.49
2023-05-04T06:55:22.181Z,72.61
2023-05-04T06:57:54.924Z,72.62
2023-05-04T07:00:28.325Z,73.29
2023-05-04T07:03:02.481Z,73.68
2023-05-04T07:05:35.568Z,73.92
2023-05-04T07:08:09.992Z,73.92
2023-05-04T07:10:42.858Z,74.97
2023-05-04T07:13:15.583Z,74.33
2023-05-04T07:15:48.430Z,74.45
2023-05-04T07:18:22.662Z,73.47
2023-05-04T07:21:01.665Z,75.68
2023-05-04T07:23:43.835Z,75.15
2023-05-04T07:26:16.558Z,74.79
2023-05-04T07:28:49.304Z,73.51
2023-05-04T07:31:21.988Z,74.43
2023-05-04T07:33:56.325Z,71.78
2023-05-04T07:36:29.009Z,74.02
2023-05-04T07:39:01.648Z,74.32
2023-05-04T07:41:34.352Z,72.71
2023-05-04T07:44:08.707Z,70.38
2023-05-04T07:46:41.555Z,72.29
2023-05-04T07:49:15.843Z,74.50
2023-05-04T07:51:48.567Z,74.56
2023-05-04T07:54:22.927Z,75.08
2023-05-04T07:56:55.944Z,74.69
2023-05-04T07:59:28.722Z,74.46
2023-05-04T08:02:01.683Z,74.97
2023-05-04T08:04:36.179Z,76.57
2023-05-04T08:07:08.920Z,75.55
2023-05-04T08:09:41.638Z,74.41
2023-05-04T08:12:14.415Z,71.65
2023-05-04T08:14:48.195Z,74.24
2023-05-04T08:17:20.998Z,73.46
2023-05-04T08:19:55.467Z,74.25
2023-05-04T08:22:28.457Z,74.27
2023-05-04T08:25:01.124Z,74.95
2023-05-04T08:27:34.225Z,73.72
2023-05-04T08:30:07.694Z,74.84
2023-05-04T08:32:40.483Z,72.89
2023-05-04T08:35:14.683Z,73.61
2023-05-04T08:37:48.865Z,72.75
2023-05-04T08:40:22.021Z,72.59
2023-05-04T08:42:54.750Z,72.49
2023-05-04T08:45:28.444Z,74.40
2023-05-04T08:48:01.370Z,75.10
2023-05-04T08:50:35.832Z,71.70
2023-05-04T08:53:10.462Z,75.50
2023-05-04T08:55:43.724Z,75.35
2023-05-04T08:58:18.736Z,75.10
2023-05-04T09:03:25.291Z,73.51
2023-05-04T09:06:00.517Z,76.01
2023-05-04T09:08:33.286Z,71.87
2023-05-04T09:11:06.342Z,74.66
2023-05-04T09:13:39.146Z,73.66
2023-05-04T09:16:14.046Z,74.46
2023-05-04T09:18:47.744Z,75.16
2023-05-04T09:21:31.148Z,73.74
2023-05-04T09:24:03.879Z,75.32
2023-05-04T09:26:37.579Z,75.26
2023-05-04T09:29:14.105Z,72.29
2023-05-04T09:31:48.096Z,72.85
2023-05-04T09:34:22.451Z,72.48
2023-05-04T09:37:03.638Z,70.37
2023-05-04T09:39:36.386Z,70.30
2023-05-04T09:42:18.778Z,71.74
2023-05-04T09:45:01.857Z,73.44
2023-05-04T09:47:35.750Z,72.92
2023-05-04T09:50:16.833Z,70.31
2023-05-04T09:52:52.788Z,70.22
2023-05-04T09:55:26.183Z,71.42
2023-05-04T09:57:58.957Z,73.83
2023-05-04T10:00:32.207Z,69.56
2023-05-04T10:03:07.191Z,70.11
2023-05-04T10:05:40.105Z,73.39
2023-05-04T10:08:14.923Z,74.97
2023-05-04T10:10:48.165Z,73.91
2023-05-04T10:13:20.812Z,75.42
2023-05-04T10:16:01.320Z,72.34
2023-05-04T10:18:42.447Z,70.72
2023-05-04T10:21:24.604Z,71.38
2023-05-04T10:24:24.809Z,67.10
2023-05-04T10:27:05.806Z,70.93
2023-05-04T10:29:39.103Z,70.57
2023-05-04T10:32:18.837Z,71.64
2023-05-04T10:34:52.161Z,73.45
2023-05-04T10:37:25.057Z,74.21
2023-05-04T10:39:59.250Z,73.38
2023-05-04T10:42:41.483Z,74.00
2023-05-04T10:45:14.691Z,74.11
2023-05-04T10:47:47.752Z,74.12
2023-05-04T10:50:20.660Z,71.46
2023-05-04T10:52:53.957Z,73.54
2023-05-04T10:55:28.118Z,76.31
2023-05-04T10:58:00.831Z,75.70
2023-05-04T11:00:37.474Z,71.49
2023-05-04T11:03:12.178Z,73.45
2023-05-04T11:05:45.702Z,70.87
2023-05-04T11:08:19.466Z,73.53
2023-05-04T11:11:03.455Z,72.71
2023-05-04T11:13:36.894Z,73.85
2023-05-04T11:16:09.656Z,74.46
2023-05-04T11:18:42.505Z,75.55
2023-05-04T11:21:24.767Z,74.47
2023-05-04T11:23:57.637Z,75.59
2023-05-04T11:26:31.759Z,72.47
2023-05-04T11:29:12.779Z,73.15
2023-05-04T11:31:54.922Z,75.86
2023-05-04T11:34:27.853Z,73.63
2023-05-04T11:37:00.654Z,74.62
2023-05-04T11:39:33.543Z,74.83
2023-05-04T11:42:08.902Z,72.81
2023-05-04T11:44:42.014Z,76.40
2023-05-04T11:47:15.803Z,75.77
2023-05-04T11:49:48.606Z,76.70
2023-05-04T11:52:23.862Z,76.42
2023-05-04T11:54:57.324Z,79.03
2023-05-04T11:57:32.504Z,79.29
2023-05-04T12:00:05.802Z,77.92
2023-05-04T12:02:38.666Z,74.67
2023-05-04T12:05:13.926Z,75.79
2023-05-04T12:07:46.720Z,76.59
2023-05-04T12:10:25.935Z,77.23
2023-05-04T12:13:00.326Z,78.81
2023-05-04T12:15:33.933Z,77.25
2023-05-04T12:18:06.759Z,78.64
2023-05-04T12:20:39.574Z,69.33
2023-05-04T12:23:12.407Z,75.29
2023-05-04T12:25:57.392Z,75.60
2023-05-04T12:28:32.433Z,76.08
2023-05-04T12:31:06.574Z,79.30
2023-05-04T12:33:39.384Z,78.75
2023-05-04T12:36:12.470Z,76.47
2023-05-04T12:38:46.079Z,75.63
2023-05-04T12:41:18.907Z,74.28
2023-05-04T12:43:52.942Z,76.48
2023-05-04T12:46:25.702Z,76.72
2023-05-04T12:48:58.408Z,76.76
2023-05-04T12:51:32.154Z,76.74
2023-05-04T12:54:04.923Z,74.88
2023-05-04T12:56:39.665Z,79.74
2023-05-04T12:59:13.793Z,76.27
2023-05-04T13:01:46.664Z,76.78
2023-05-04T13:04:19.656Z,74.46
2023-05-04T13:06:52.560Z,76.51
2023-05-04T13:09:25.328Z,76.29
2023-05-04T13:11:58.081Z,78.59
2023-05-04T13:14:32.199Z,79.32
2023-05-04T13:17:05.445Z,76.08
2023-05-04T13:19:38.070Z,76.69
2023-05-04T13:22:10.765Z,76.13
2023-05-04T13:24:43.467Z,77.58
2023-05-04T13:27:16.223Z,71.67
2023-05-04T13:29:50.271Z,74.04
2023-05-04T13:32:23.043Z,76.06
2023-05-04T13:34:55.784Z,77.60
2023-05-04T13:37:28.467Z,77.66
2023-05-04T13:40:01.770Z,76.87
2023-05-04T13:42:37.178Z,76.95
2023-05-04T13:45:13.161Z,76.63
2023-05-04T13:47:46.576Z,72.32
2023-05-04T13:50:19.496Z,74.91
2023-05-04T13:52:52.254Z,76.42
2023-05-04T13:55:25.532Z,76.40
2023-05-04T13:57:58.286Z,75.17
2023-05-04T14:00:32.628Z,75.17
2023-05-04T14:03:05.882Z,69.79
2023-05-04T14:05:38.683Z,70.91
2023-05-04T14:08:11.349Z,71.52
2023-05-04T14:10:44.006Z,72.44
2023-05-04T14:13:17.078Z,73.17
2023-05-04T14:15:51.300Z,73.91
2023-05-04T14:18:24.081Z,75.09
2023-05-04T14:20:56.988Z,72.59
2023-05-04T14:23:29.855Z,69.18
2023-05-04T14:26:02.530Z,68.24
2023-05-04T14:28:35.272Z,72.97
2023-05-04T14:31:09.619Z,73.44
2023-05-04T14:33:42.993Z,72.35
2023-05-04T14:36:15.742Z,73.90
2023-05-04T14:38:48.754Z,69.43
2023-05-04T14:41:21.447Z,73.02
2023-05-04T14:43:54.088Z,73.92
2023-05-04T14:46:30.828Z,71.87
2023-05-04T14:49:03.655Z,73.56
2023-05-04T14:51:36.887Z,74.91
2023-05-04T14:54:09.675Z,70.95
2023-05-04T14:56:42.322Z,69.00
2023-05-04T14:59:15.649Z,73.68
2023-05-04T15:01:50.870Z,72.26
2023-05-04T15:04:23.717Z,71.57
2023-05-04T15:06:56.416Z,68.64
2023-05-04T15:09:29.173Z,69.92
2023-05-04T15:12:01.904Z,70.52
2023-05-04T15:14:34.603Z,67.45
2023-05-04T15:17:08.749Z,72.21
2023-05-04T15:19:41.538Z,72.14
2023-05-04T15:22:14.239Z,68.14
2023-05-04T15:24:47.019Z,68.07
2023-05-04T15:27:19.659Z,68.92
2023-05-04T15:29:52.405Z,69.62
2023-05-04T15:32:26.827Z,72.20
2023-05-04T15:35:05.417Z,72.99
2023-05-04T15:37:38.914Z,74.11
2023-05-04T15:40:12.222Z,72.71
2023-05-04T15:42:44.961Z,69.18
2023-05-04T15:45:17.971Z,70.33
2023-05-04T15:47:53.532Z,72.34
2023-05-04T15:50:26.320Z,71.54
2023-05-04T15:52:59.161Z,71.95
2023-05-04T15:55:32.261Z,71.96
2023-05-04T15:58:05.300Z,71.81
2023-05-04T16:00:38.838Z,71.95
2023-05-04T16:03:13.281Z,72.96
2023-05-04T16:05:46.290Z,72.20
2023-05-04T16:08:19.072Z,72.01
2023-05-04T16:10:52.288Z,71.54
2023-05-04T16:13:25.184Z,72.36
2023-05-04T16:15:58.073Z,73.12
2023-05-04T16:18:32.355Z,73.00
2023-05-04T16:21:05.094Z,73.21
2023-05-04T16:23:37.690Z,73.21
2023-05-04T16:26:10.406Z,71.88
2023-05-04T16:28:45.235Z,72.42
2023-05-04T16:31:18.037Z,71.73
2023-05-04T16:33:53.368Z,72.76
2023-05-04T16:36:26.773Z,72.16
2023-05-04T16:38:59.834Z,71.87
2023-05-04T16:41:32.845Z,71.19
2023-05-04T16:44:08.230Z,71.36
2023-05-04T16:46:41.265Z,71.45
2023-05-04T16:49:15.407Z,72.66
2023-05-04T16:51:48.120Z,72.64
2023-05-04T16:54:21.216Z,72.10
2023-05-04T16:56:54.045Z,72.21
2023-05-04T16:59:26.806Z,72.03
2023-05-04T17:01:59.702Z,71.71
2023-05-04T17:04:33.908Z,72.10
2023-05-04T17:07:07.768Z,72.38
2023-05-04T17:09:41.896Z,72.28
2023-05-04T17:12:15.298Z,72.17
2023-05-04T17:14:48.319Z,72.65
2023-05-04T17:17:21.204Z,72.75
2023-05-04T17:19:55.398Z,72.34
2023-05-04T17:22:28.142Z,72.27
2023-05-04T17:25:00.830Z,71.98
2023-05-04T17:27:33.874Z,72.20
2023-05-04T17:30:07.421Z,71.97
2023-05-04T17:32:43.104Z,73.65
2023-05-04T17:35:25.414Z,75.48
2023-05-04T17:37:59.244Z,75.80
2023-05-04T17:40:31.860Z,73.44
2023-05-04T17:43:04.837Z,73.33
2023-05-04T17:45:37.610Z,72.97
2023-05-04T17:48:10.566Z,72.57
2023-05-04T17:50:47.897Z,72.84
2023-05-04T17:53:23.013Z,72.58
2023-05-04T17:55:56.206Z,73.24
2023-05-04T17:58:28.956Z,73.38
2023-05-04T18:01:02.005Z,72.45
2023-05-04T18:03:34.944Z,72.18
2023-05-04T18:06:09.421Z,71.65
2023-05-04T18:08:42.113Z,71.64
2023-05-04T18:11:14.848Z,71.81
2023-05-04T18:13:47.600Z,71.60
2023-05-04T18:16:20.518Z,71.62
2023-05-04T18:18:53.656Z,71.44
2023-05-04T18:21:27.832Z,71.38
2023-05-04T18:24:00.608Z,71.21
2023-05-04T18:26:33.276Z,71.16
2023-05-04T18:29:17.761Z,71.38
2023-05-04T18:31:51.606Z,71.56
2023-05-04T18:34:24.535Z,70.98
2023-05-04T18:36:58.724Z,70.85
2023-05-04T18:39:31.935Z,70.75
2023-05-04T18:42:04.728Z,70.74
2023-05-04T18:44:37.616Z,71.36
2023-05-04T18:47:10.342Z,71.38
2023-05-04T18:49:44.252Z,71.41
2023-05-04T18:52:18.509Z,71.51
2023-05-04T18:54:53.227Z,71.82
2023-05-04T18:57:30.048Z,71.74
2023-05-04T19:00:03.053Z,71.74
2023-05-04T19:02:36.164Z,71.86
2023-05-04T19:05:11.268Z,72.01
2023-05-04T19:07:47.110Z,71.92
2023-05-04T19:10:19.893Z,71.80
2023-05-04T19:12:53.271Z,71.90
2023-05-04T19:15:26.910Z,72.19
2023-05-04T19:17:59.716Z,72.24
2023-05-04T19:20:32.375Z,72.28
2023-05-04T19:23:06.623Z,72.38
2023-05-04T19:25:39.375Z,72.24
2023-05-04T19:28:12.190Z,72.61
2023-05-04T19:30:45.349Z,72.55
2023-05-04T19:33:18.103Z,72.70
2023-05-04T19:35:51.181Z,72.85
2023-05-04T19:38:26.129Z,72.81
2023-05-04T19:40:59.294Z,73.00
2023-05-04T19:43:33.571Z,73.05
2023-05-04T19:46:06.311Z,72.96
2023-05-04T19:48:39.707Z,73.38
2023-05-04T19:51:12.421Z,73.85
2023-05-04T19:53:46.490Z,73.92
2023-05-04T19:56:19.453Z,73.83
2023-05-04T19:58:52.994Z,74.36
2023-05-04T20:01:25.832Z,74.97
2023-05-04T20:03:58.726Z,74.63
2023-05-04T20:06:31.989Z,74.77
2023-05-04T20:09:06.132Z,74.84
2023-05-04T20:11:39.096Z,74.62
2023-05-04T20:14:11.993Z,74.92
2023-05-04T20:16:44.942Z,75.16
2023-05-04T20:19:17.734Z,75.69
2023-05-04T20:21:50.920Z,75.45
2023-05-04T20:24:25.407Z,75.67
2023-05-04T20:26:58.121Z,75.36
2023-05-04T20:29:30.800Z,75.48
2023-05-04T20:32:05.149Z,75.75
2023-05-04T20:34:39.726Z,75.55
2023-05-04T20:37:13.070Z,75.64
2023-05-04T20:39:47.115Z,75.60
2023-05-04T20:42:20.950Z,75.88
2023-05-04T20:44:53.647Z,76.20
2023-05-04T20:47:26.687Z,75.96
2023-05-04T20:49:59.387Z,76.26
2023-05-04T20:52:32.143Z,76.19
2023-05-04T20:55:07.767Z,76.24
2023-05-04T20:57:40.878Z,76.40
2023-05-04T21:00:15.133Z,76.11
2023-05-04T21:02:48.514Z,76.34
2023-05-04T21:05:21.391Z,76.66
2023-05-04T21:07:54.202Z,76.66
2023-05-04T21:10:30.791Z,77.14
2023-05-04T21:13:03.530Z,77.00
2023-05-04T21:15:36.477Z,76.92
2023-05-04T21:18:09.346Z,76.98
2023-05-04T21:20:42.586Z,77.00
2023-05-04T21:23:15.367Z,76.75
2023-05-04T21:25:49.439Z,76.45
2023-05-04T21:28:22.173Z,76.45
2023-05-04T21:30:54.842Z,76.54
2023-05-04T21:33:27.836Z,76.60
2023-05-04T21:36:00.503Z,76.42
2023-05-04T21:38:33.243Z,76.13
2023-05-04T21:41:15.006Z,76.08
2023-05-04T21:43:47.785Z,75.95
2023-05-04T21:46:20.443Z,75.04
2023-05-04T21:48:53.752Z,75.43
2023-05-04T21:51:27.010Z,75.12
2023-05-04T21:53:59.763Z,74.89
2023-05-04T21:56:33.932Z,74.59
2023-05-04T21:59:06.708Z,74.81
2023-05-04T22:01:39.705Z,74.87
2023-05-04T22:04:12.524Z,74.64
2023-05-04T22:06:45.531Z,74.65
2023-05-04T22:09:19.123Z,74.83
2023-05-04T22:11:53.427Z,74.96
2023-05-04T22:14:26.415Z,74.73
2023-05-04T22:16:59.673Z,74.96
2023-05-04T22:19:32.521Z,74.82
2023-05-04T22:22:05.516Z,74.64
2023-05-04T22:24:38.259Z,74.87
2023-05-04T22:27:12.282Z,75.18
2023-05-04T22:29:45.161Z,75.23
2023-05-04T22:32:17.904Z,75.36
2023-05-04T22:34:50.637Z,75.00
2023-05-04T22:37:23.379Z,75.04
2023-05-04T22:39:56.114Z,74.81
2023-05-04T22:42:30.224Z,74.96
2023-05-04T22:45:03.754Z,74.94
2023-05-04T22:47:36.539Z,74.60
2023-05-04T22:50:10.028Z,74.78
2023-05-04T22:52:43.201Z,74.46
2023-05-04T22:55:16.418Z,74.53
2023-05-04T22:57:50.559Z,74.50
2023-05-04T23:00:23.410Z,74.49
2023-05-04T23:02:56.768Z,74.66
2023-05-04T23:05:29.645Z,74.74
2023-05-04T23:08:02.288Z,74.98
2023-05-04T23:10:35.715Z,75.12
2023-05-04T23:13:09.841Z,75.18
2023-05-04T23:15:42.777Z,75.10
2023-05-04T23:18:16.482Z,75.53
2023-05-04T23:20:49.256Z,75.64
2023-05-04T23:23:21.898Z,76.04
2023-05-04T23:25:54.586Z,75.63
2023-05-04T23:28:28.593Z,76.16
2023-05-04T23:31:02.535Z,75.93
2023-05-04T23:33:35.160Z,75.96
2023-05-04T23:36:08.305Z,75.80
2023-05-04T23:38:40.974Z,75.75
2023-05-04T23:41:13.955Z,76.00
2023-05-04T23:43:50.345Z,76.02
2023-05-04T23:46:23.070Z,75.59
2023-05-04T23:48:56.127Z,75.83
2023-05-04T23:51:29.347Z,76.10
2023-05-04T23:54:02.050Z,76.50
2023-05-04T23:56:35.162Z,76.92
2023-05-04T23:59:10.589Z,76.74
